Terminal Aerodrome Forecast
Issued by NWS Charleston, WV

Current Version | Previous Version | Graphics & Text | Print | Product List | Glossary On
Versions: 1 2 3 4 5 6 7 8 9 10 11 12 13 14 15 16 17 18 19 20 21
042
FTUS41 KRLX 240546 AAB
TAFPKB
TAF AMD
KPKB 240546Z 2406/2506 08004KT P6SM BKN110
     FM241500 07007KT P6SM OVC035=

USA.gov is the U.S. government's official web portal to all federal, state and local government web resources and services.